Time;durP1;ratioP1;P1;durP2;ratioP2;P2;SDS_P1;SDS_P2;PMS_P1;PMS_P2;Temp;Humidity;BMP_temperature;BMP_pressure;BME280_temperature;BME280_humidity;BME280_pressure;Samples;Min_cycle;Max_cycle;Signal;HPM_P1;HPM_P2
2021/01/09 00:01:54;;;;;;;72.20;39.33;;;;;;;-1.64;100.00;99101.10;1785397;79;20927;-72
2021/01/09 00:04:22;;;;;;;;;;;;;;;-1.64;100.00;99105.53;1787945;79;20935;-73
2021/01/09 00:06:50;;;;;;;74.75;35.30;;;;;;;-1.64;100.00;99105.53;1779507;80;20140;-72
2021/01/09 00:09:18;;;;;;;62.70;33.83;;;;;;;-1.65;100.00;99108.66;1779544;80;21675;-73
2021/01/09 00:11:47;;;;;;;62.88;31.45;;;;;;;-1.67;100.00;99103.27;1779383;79;21003;-72
2021/01/09 00:14:15;;;;;;;53.78;25.88;;;;;;;-1.69;100.00;99106.58;1779689;80;22544;-73
2021/01/09 00:16:50;;;;;;;64.03;32.28;;;;;;;-1.68;100.00;99109.05;1779446;80;21035;-73
2021/01/09 00:19:19;;;;;;;71.15;35.58;;;;;;;-1.66;100.00;99107.55;1779387;80;21110;-73
2021/01/09 00:21:52;;;;;;;80.80;38.00;;;;;;;-1.66;100.00;99105.73;1779055;80;21395;-73
2021/01/09 00:24:19;;;;;;;159.97;67.87;;;;;;;-1.65;100.00;99104.72;1779020;79;21628;-73
2021/01/09 00:26:48;;;;;;;158.20;65.28;;;;;;;-1.66;100.00;99104.41;1779445;80;21126;-73
2021/01/09 00:29:18;;;;;;;154.53;68.05;;;;;;;-1.67;100.00;99100.13;1779363;80;21019;-73
2021/01/09 00:31:47;;;;;;;;;;;;;;;-1.66;100.00;99101.78;1781987;80;21641;-73
2021/01/09 00:34:15;;;;;;;86.05;39.95;;;;;;;-1.66;100.00;99102.29;1749295;80;21209;-72
2021/01/09 00:36:48;;;;;;;71.17;35.60;;;;;;;-1.67;100.00;99101.45;1779427;80;20938;-73
2021/01/09 00:39:16;;;;;;;66.17;31.65;;;;;;;-1.66;100.00;99099.16;1779350;80;21027;-72
2021/01/09 00:41:45;;;;;;;;;;;;;;;-1.67;100.00;99096.19;1782019;80;21043;-72
2021/01/09 00:44:13;;;;;;;59.10;30.45;;;;;;;-1.66;100.00;99100.47;1779563;80;20218;-73
2021/01/09 00:46:41;;;;;;;56.33;30.40;;;;;;;-1.66;100.00;99102.29;1779479;80;21363;-72
2021/01/09 00:49:10;;;;;;;63.20;32.20;;;;;;;-1.66;100.00;99103.10;1779471;80;21011;-72
2021/01/09 00:51:40;;;;;;;62.45;33.83;;;;;;;-1.64;100.00;99101.58;1779534;80;20999;-73
2021/01/09 00:54:09;;;;;;;60.17;31.82;;;;;;;-1.63;100.00;99100.09;1779735;80;21122;-74
2021/01/09 00:56:38;;;;;;;65.25;31.00;;;;;;;-1.61;100.00;99095.97;1779534;80;21122;-74
2021/01/09 00:59:07;;;;;;;48.42;25.40;;;;;;;-1.62;100.00;99093.81;1779702;80;21177;-73
2021/01/09 01:01:36;;;;;;;60.78;31.82;;;;;;;-1.61;100.00;99095.46;1779552;80;21506;-73
2021/01/09 01:04:05;;;;;;;66.80;30.68;;;;;;;-1.59;100.00;99099.23;1779436;80;20948;-73
2021/01/09 01:06:38;;;;;;;61.95;33.55;;;;;;;-1.58;100.00;99102.98;1785604;80;20999;-73
2021/01/09 01:09:10;;;;;;;56.63;30.05;;;;;;;-1.57;100.00;99103.30;1785242;80;21149;-73
2021/01/09 01:11:40;;;;;;;68.25;36.42;;;;;;;-1.57;100.00;99095.89;1785658;80;22346;-73
2021/01/09 01:14:08;;;;;;;62.90;31.73;;;;;;;-1.56;100.00;99093.59;1785511;80;21600;-73
2021/01/09 01:16:37;;;;;;;61.20;32.58;;;;;;;-1.57;100.00;99095.89;1785428;80;21105;-73
2021/01/09 01:19:06;;;;;;;58.80;29.00;;;;;;;-1.58;100.00;99092.45;1785546;80;21185;-73
2021/01/09 01:21:34;;;;;;;66.37;32.78;;;;;;;-1.56;100.00;99096.22;1802661;79;25479;-73
2021/01/09 01:24:05;;;;;;;58.80;31.17;;;;;;;-1.56;100.00;99095.72;1791368;80;21133;-73
2021/01/09 01:26:34;;;;;;;60.15;32.60;;;;;;;-1.56;100.00;99089.13;1814347;79;21082;-72
2021/01/09 01:31:48;;;;;;;62.25;35.03;;;;;;;-1.51;100.00;99090.70;1875985;75;28661;-71
2021/01/09 01:34:18;;;;;;;63.23;33.20;;;;;;;-1.54;100.00;99088.95;1819891;78;20924;-71
2021/01/09 01:36:53;;;;;;;61.08;32.33;;;;;;;-1.53;100.00;99093.20;1819931;78;21299;-71
2021/01/09 01:39:21;;;;;;;65.25;32.58;;;;;;;-1.53;100.00;99091.89;1820002;78;21497;-71
2021/01/09 01:41:50;;;;;;;60.85;33.50;;;;;;;-1.54;100.00;99091.08;1787031;78;21069;-71
2021/01/09 01:44:19;;;;;;;60.80;31.35;;;;;;;-1.53;100.00;99090.58;1820016;78;21441;-71
2021/01/09 01:46:47;;;;;;;;;;;;;;;-1.52;100.00;99086.93;1822643;78;20995;-71
2021/01/09 01:49:16;;;;;;;63.38;31.40;;;;;;;-1.51;100.00;99087.27;1819672;78;21806;-71
2021/01/09 01:51:44;;;;;;;61.68;32.67;;;;;;;-1.51;100.00;99085.95;1819976;78;21046;-71
2021/01/09 01:54:12;;;;;;;65.55;33.55;;;;;;;-1.52;100.00;99083.82;1820008;78;25272;-71
2021/01/09 01:56:41;;;;;;;55.43;29.07;;;;;;;-1.51;100.00;99083.31;1819917;78;21035;-71
2021/01/09 01:59:09;;;;;;;57.50;29.85;;;;;;;-1.51;100.00;99081.48;1819721;78;20896;-72
2021/01/09 02:01:38;;;;;;;60.10;31.62;;;;;;;-1.51;100.00;99075.41;1819921;78;22317;-73
2021/01/09 02:04:07;;;;;;;57.03;25.32;;;;;;;-1.50;100.00;99077.03;1819765;78;20986;-72
2021/01/09 02:06:36;;;;;;;61.15;29.55;;;;;;;-1.51;100.00;99073.59;1788504;78;21557;-73
2021/01/09 02:09:12;;;;;;;54.48;29.87;;;;;;;-1.52;100.00;99075.92;1820056;78;21056;-72
2021/01/09 02:12:07;;;;;;;64.00;32.58;;;;;;;-1.52;100.00;99071.98;1819821;78;21042;-72
2021/01/09 02:14:46;;;;;;;64.35;35.05;;;;;;;-1.51;100.00;99069.64;1819805;78;21188;-72
2021/01/09 02:17:16;;;;;;;58.73;30.95;;;;;;;-1.52;100.00;99070.66;1819881;78;20936;-72
2021/01/09 02:19:45;;;;;;;66.17;32.20;;;;;;;-1.52;100.00;99079.03;1819972;78;20971;-73
2021/01/09 02:22:17;;;;;;;63.78;32.08;;;;;;;-1.54;100.00;99071.34;1819889;78;20991;-73
2021/01/09 02:24:46;;;;;;;59.40;31.60;;;;;;;-1.54;100.00;99073.97;1819923;78;21106;-72
2021/01/09 02:27:16;;;;;;;64.40;30.80;;;;;;;-1.54;100.00;99066.08;1788566;78;21368;-73
2021/01/09 02:30:07;;;;;;;66.77;32.38;;;;;;;-1.54;100.00;99065.27;1819735;78;21047;-73
2021/01/09 02:33:03;;;;;;;66.28;34.03;;;;;;;-1.53;100.00;99062.94;1823374;78;21537;-73
2021/01/09 02:35:36;;;;;;;45.63;22.52;;;;;;;-1.54;100.00;99066.59;1796347;78;20896;-73
2021/01/09 02:38:07;;;;;;;66.70;35.38;;;;;;;-1.55;100.00;99068.38;1823381;78;20995;-73
2021/01/09 02:40:41;;;;;;;62.80;31.68;;;;;;;-1.55;100.00;99070.20;1823278;78;21240;-73
2021/01/09 02:43:12;;;;;;;61.02;30.62;;;;;;;-1.56;100.00;99065.95;1822634;78;20927;-73
2021/01/09 02:45:42;;;;;;;72.53;36.93;;;;;;;-1.57;100.00;99065.14;1822760;78;21538;-72
2021/01/09 02:48:11;;;;;;;59.25;31.77;;;;;;;-1.58;100.00;99062.18;1822708;78;20852;-73
2021/01/09 02:50:41;;;;;;;61.37;31.52;;;;;;;-1.58;100.00;99059.55;1822625;78;20900;-73
2021/01/09 02:53:10;;;;;;;62.35;32.20;;;;;;;-1.60;100.00;99053.66;1822747;78;21252;-73
2021/01/09 02:55:40;;;;;;;60.95;31.68;;;;;;;-1.59;100.00;99063.20;1822623;78;21034;-73
2021/01/09 02:58:08;;;;;;;67.10;32.03;;;;;;;-1.59;100.00;99059.25;1822696;78;20896;-72
2021/01/09 03:00:37;;;;;;;71.15;32.55;;;;;;;-1.58;100.00;99061.38;1822806;78;20995;-73
2021/01/09 03:03:05;;;;;;;59.08;28.87;;;;;;;-1.58;100.00;99055.60;1822877;78;20940;-73
2021/01/09 03:05:34;;;;;;;65.37;33.10;;;;;;;-1.58;100.00;99054.79;1822776;78;21193;-73
2021/01/09 03:08:05;;;;;;;66.72;32.25;;;;;;;-1.57;100.00;99055.09;1822639;78;21581;-73
2021/01/09 03:10:33;;;;;;;64.77;32.48;;;;;;;-1.59;100.00;99054.49;1822550;78;21644;-74
2021/01/09 03:13:03;;;;;;;60.52;33.02;;;;;;;-1.58;100.00;99056.11;1822625;78;21315;-73
2021/01/09 03:15:32;;;;;;;69.15;34.38;;;;;;;-1.56;100.00;99061.50;1822932;78;20899;-73
2021/01/09 03:18:00;;;;;;;65.37;31.87;;;;;;;-1.57;100.00;99058.56;1822741;78;21209;-73
2021/01/09 03:20:30;;;;;;;68.02;31.97;;;;;;;-1.58;100.00;99062.18;1795814;78;20931;-73
2021/01/09 03:22:58;;;;;;;66.30;34.55;;;;;;;-1.58;100.00;99060.05;1822864;78;20947;-73
2021/01/09 03:25:27;;;;;;;67.17;32.73;;;;;;;-1.59;100.00;99065.02;1822742;78;20983;-73
2021/01/09 03:27:57;;;;;;;;;;;;;;;-1.60;100.00;99064.18;1825425;78;20979;-73
2021/01/09 03:30:25;;;;;;;63.13;33.15;;;;;;;-1.60;100.00;99060.73;1822610;77;21188;-73
2021/01/09 03:32:53;;;;;;;71.17;30.32;;;;;;;-1.61;100.00;99063.87;1822774;78;20936;-74
2021/01/09 03:35:26;;;;;;;60.95;30.15;;;;;;;-1.60;100.00;99059.42;1822771;78;21534;-72
2021/01/09 03:37:57;;;;;;;65.20;31.42;;;;;;;-1.60;100.00;99062.05;1822702;78;21181;-73
2021/01/09 03:40:25;;;;;;;56.18;28.98;;;;;;;-1.61;100.00;99059.93;1822671;78;20987;-72
2021/01/09 03:42:53;;;;;;;70.00;34.20;;;;;;;-1.60;100.00;99060.73;1795779;78;21373;-73
2021/01/09 03:45:22;;;;;;;59.75;29.27;;;;;;;-1.58;100.00;99065.32;1795660;78;20931;-72
2021/01/09 03:47:51;;;;;;;67.20;35.60;;;;;;;-1.58;100.00;99067.95;1822782;78;20908;-73
2021/01/09 05:51:56;;;;;;;99.92;44.73;;;;;;;-1.55;100.00;99146.53;1801734;78;21047;-72
2021/01/09 05:54:36;;;;;;;86.32;43.55;;;;;;;-1.56;100.00;99147.03;1800298;79;21174;-72
2021/01/09 05:57:05;;;;;;;78.20;39.90;;;;;;;-1.55;100.00;99152.61;1800228;79;20936;-72
2021/01/09 05:59:35;;;;;;;88.40;44.58;;;;;;;-1.56;100.00;99158.88;1800397;79;21019;-73
2021/01/09 06:02:03;;;;;;;72.80;37.90;;;;;;;-1.54;100.00;99156.08;1800320;79;20932;-72
2021/01/09 06:04:32;;;;;;;69.65;34.98;;;;;;;-1.55;100.00;99163.13;1800459;79;24529;-72
2021/01/09 06:07:26;;;;;;;66.65;35.70;;;;;;;-1.55;100.00;99161.81;1800219;79;20909;-72
2021/01/09 06:10:12;;;;;;;70.83;34.55;;;;;;;-1.51;100.00;99164.41;1852183;77;28662;-72
2021/01/09 06:13:00;;;;;;;64.90;33.92;;;;;;;-1.54;100.00;99172.67;1789273;78;20908;-72
2021/01/09 06:15:33;;;;;;;77.90;35.98;;;;;;;-1.56;100.00;99172.05;1750095;82;21384;-72
2021/01/09 06:18:04;;;;;;;68.00;34.88;;;;;;;-1.59;100.00;99171.10;1819842;78;20920;-72
2021/01/09 06:20:35;;;;;;;77.82;34.85;;;;;;;-1.60;100.00;99172.59;1750048;82;21019;-72
2021/01/09 06:23:06;;;;;;;66.47;32.30;;;;;;;-1.61;100.00;99178.87;1819853;78;21003;-72
2021/01/09 06:25:35;;;;;;;53.90;25.95;;;;;;;-1.61;100.00;99181.50;1819894;78;21003;-72
2021/01/09 06:28:05;;;;;;;68.52;33.48;;;;;;;-1.61;100.00;99186.77;1749979;81;21377;-73
2021/01/09 06:30:34;;;;;;;69.72;34.45;;;;;;;-1.59;100.00;99189.53;1788897;78;21003;-72
2021/01/09 06:33:04;;;;;;;79.85;38.33;;;;;;;-1.59;100.00;99186.89;1750046;82;21014;-72
2021/01/09 06:35:33;;;;;;;;;;;;;;;-1.57;100.00;99191.48;1822521;78;20903;-72
2021/01/09 06:38:03;;;;;;;70.17;31.50;;;;;;;-1.55;100.00;99189.96;1819999;78;20145;-72
2021/01/09 06:40:31;;;;;;;60.20;30.23;;;;;;;-1.55;100.00;99189.45;1750028;82;21466;-72
2021/01/09 06:43:01;;;;;;;65.78;36.28;;;;;;;-1.55;100.00;99188.64;1819771;78;21533;-73
2021/01/09 06:45:30;;;;;;;74.92;39.03;;;;;;;-1.52;100.00;99189.59;1750163;82;20951;-72
2021/01/09 06:48:00;;;;;;;76.97;38.10;;;;;;;-1.52;100.00;99188.27;1819928;78;21577;-72
2021/01/09 06:50:48;;;;;;;60.05;30.43;;;;;;;-1.50;100.00;99192.85;1819539;78;21451;-74
2021/01/09 06:53:17;;;;;;;74.23;34.47;;;;;;;-1.52;100.00;99202.27;1749193;82;21216;-71
2021/01/09 06:55:51;;;;;;;71.33;36.10;;;;;;;-1.49;100.00;99198.92;1788303;78;21023;-72
2021/01/09 06:58:23;;;;;;;58.33;32.03;;;;;;;-1.51;100.00;99199.94;1749245;81;21656;-72
2021/01/09 07:00:51;;;;;;;53.15;28.73;;;;;;;-1.51;100.00;99198.63;1788726;78;21167;-71
2021/01/09 07:03:22;;;;;;;57.45;27.77;;;;;;;-1.52;100.00;99200.95;1749284;82;21577;-72
2021/01/09 07:05:54;;;;;;;55.92;30.25;;;;;;;-1.51;100.00;99203.08;1819158;78;22055;-72
2021/01/09 07:08:25;;;;;;;64.17;30.90;;;;;;;-1.48;100.00;99206.66;1816395;78;21201;-72
2021/01/09 07:10:56;;;;;;;72.65;37.83;;;;;;;-1.49;100.00;99210.77;1727247;82;21070;-72
2021/01/09 07:13:25;;;;;;;53.23;25.75;;;;;;;-1.48;100.00;99218.50;1726711;82;21177;-73
2021/01/09 07:20:16;;;;;;;56.77;27.30;;;;;;;-1.46;100.00;99217.82;1578519;90;21132;-73
2021/01/09 07:33:33;;;;;;;48.83;24.05;;;;;;;-1.34;100.00;99225.56;1796874;79;28449;-71
2021/01/09 07:36:03;;;;;;;72.03;34.95;;;;;;;-1.39;100.00;99235.02;1804986;79;21025;-71
2021/01/09 07:38:44;;;;;;;65.85;33.88;;;;;;;-1.39;100.00;99229.76;1803294;79;22646;-74
2021/01/09 07:41:52;;;;;;;57.73;29.10;;;;;;;-1.38;100.00;99231.37;1805137;79;21119;-73
2021/01/09 07:44:34;;;;;;;58.87;31.37;;;;;;;-1.33;100.00;99226.38;1850979;77;22765;-72
2021/01/09 07:47:11;;;;;;;63.60;32.03;;;;;;;-1.35;100.00;99223.10;1817004;78;21082;-72
2021/01/09 07:49:46;;;;;;;50.70;23.62;;;;;;;-1.34;100.00;99223.44;1786860;78;20993;-73
2021/01/09 07:52:40;;;;;;;56.68;29.02;;;;;;;-1.34;100.00;99222.12;1686328;82;21062;-73
2021/01/09 07:55:22;;;;;;;49.80;22.90;;;;;;;-1.32;100.00;99224.07;1813006;78;21279;-72
2021/01/09 07:57:51;;;;;;;53.25;28.00;;;;;;;-1.38;100.00;99231.37;1814635;78;21145;-72
2021/01/09 08:03:45;;;;;;;56.48;26.57;;;;;;;-1.41;100.00;99230.44;1811204;78;21239;-74
2021/01/09 08:06:46;;;;;;;70.52;35.92;;;;;;;-1.32;100.00;99234.60;1872574;76;26189;-72
2021/01/09 08:09:16;;;;;;;65.85;33.88;;;;;;;-1.32;100.00;99229.34;1818643;78;21117;-72
2021/01/09 08:11:55;;;;;;;79.60;39.80;;;;;;;-1.28;100.00;99233.21;1823014;78;22135;-72
2021/01/09 08:14:30;;;;;;;56.45;24.12;;;;;;;-1.25;100.00;99232.03;1824013;77;21209;-72
2021/01/09 08:17:11;;;;;;;64.65;29.85;;;;;;;-1.26;100.00;99231.72;1823557;78;20980;-72
2021/01/09 08:19:43;;;;;;;66.77;37.05;;;;;;;-1.25;100.00;99237.30;1823070;77;21058;-72
2021/01/09 08:22:16;;;;;;;69.97;36.68;;;;;;;-1.18;100.00;99243.45;1823232;78;21895;-72
2021/01/09 08:32:45;;;;;;;51.88;27.48;;;;;;;-1.10;100.00;99240.22;1743324;80;21253;-72
2021/01/09 08:35:14;;;;;;;65.85;33.28;;;;;;;-1.15;100.00;99237.81;1713106;83;21213;-72
2021/01/09 08:37:53;;;;;;;64.22;30.43;;;;;;;-1.21;100.00;99240.69;1712432;82;22036;-73
2021/01/09 08:40:32;;;;;;;74.95;38.02;;;;;;;-1.29;100.00;99243.45;1710235;83;22071;-73
2021/01/09 08:43:24;;;;;;;73.60;38.17;;;;;;;-1.16;100.00;99237.00;1845188;77;22751;-72
2021/01/09 08:45:59;;;;;;;51.45;26.48;;;;;;;-0.91;100.00;99243.23;1804651;78;21161;-73
2021/01/09 08:48:32;;;;;;;78.62;39.90;;;;;;;-0.68;100.00;99237.30;1746649;82;21374;-71
2021/01/09 08:51:17;;;;;;;48.83;26.82;;;;;;;-0.43;100.00;99244.82;1814568;78;21086;-72
2021/01/09 08:54:12;;;;;;;56.95;31.40;;;;;;;-0.31;100.00;99241.98;1786017;78;21536;-72
2021/01/09 08:56:42;;;;;;;60.12;33.23;;;;;;;-0.24;100.00;99242.04;1813510;78;21043;-73
2021/01/09 08:59:12;;;;;;;46.40;24.35;;;;;;;-0.24;100.00;99239.41;1811573;78;21051;-72
2021/01/09 09:01:47;;;;;;;48.08;24.72;;;;;;;-0.42;100.00;99229.81;1691834;83;21152;-72
2021/01/09 09:04:42;;;;;;;50.98;27.75;;;;;;;-0.32;100.00;99231.61;1714560;83;20923;-74
2021/01/09 09:07:30;;;;;;;;;;;;;;;;;;;;;
2021/01/09 09:10:08;;;;;;;62.17;39.20;;;;;;;0.02;100.00;99232.16;1828296;76;28447;-72
2021/01/09 09:12:39;;;;;;;57.67;30.15;;;;;;;-0.10;100.00;99239.81;1854458;77;20896;-72
2021/01/09 09:15:10;;;;;;;51.90;29.85;;;;;;;-0.08;100.00;99230.38;1785107;80;22038;-72
2021/01/09 09:17:50;;;;;;;52.95;29.63;;;;;;;-0.16;100.00;99230.02;1789360;80;21604;-72
2021/01/09 09:20:22;;;;;;;42.53;23.60;;;;;;;-0.19;100.00;99230.41;1814877;79;21146;-72
2021/01/09 09:22:53;;;;;;;48.08;24.92;;;;;;;-0.10;100.00;99221.83;1763226;79;21003;-72
2021/01/09 09:25:23;;;;;;;54.70;28.80;;;;;;;0.07;100.00;99221.03;1817635;78;20979;-72
2021/01/09 09:27:55;;;;;;;52.05;27.67;;;;;;;0.04;100.00;99221.42;1817658;78;22192;-71
2021/01/09 09:30:25;;;;;;;43.87;17.77;;;;;;;-0.02;100.00;99219.06;1786326;79;21042;-73
2021/01/09 09:37:22;;;;;;;41.05;21.87;;;;;;;-0.55;100.00;99217.34;1830274;76;26877;-71
2021/01/09 09:39:56;;;;;;;37.38;17.25;;;;;;;-0.69;100.00;99208.48;1791980;77;21541;-74
2021/01/09 09:42:32;;;;;;;33.90;17.52;;;;;;;-0.77;100.00;99206.80;1791813;77;21267;-72
2021/01/09 09:45:50;;;;;;;39.70;22.25;;;;;;;-0.78;100.00;99204.38;1794227;77;21629;-72
2021/01/09 09:49:00;;;;;;;30.75;16.95;;;;;;;-0.76;100.00;99207.13;1788280;77;21113;-73
2021/01/09 09:55:39;;;;;;;24.18;12.85;;;;;;;-0.61;100.00;99206.22;1598331;87;21329;-72
2021/01/09 09:58:30;;;;;;;24.55;11.93;;;;;;;-0.27;100.00;99201.03;1622955;86;21456;-70
2021/01/09 10:01:30;;;;;;;31.95;18.10;;;;;;;-0.34;100.00;99205.45;1850778;77;22732;-70
2021/01/09 10:04:00;;;;;;;27.35;16.37;;;;;;;-0.45;100.00;99194.09;1787500;78;21605;-72
2021/01/09 10:06:40;;;;;;;25.92;14.95;;;;;;;-0.55;100.00;99206.28;1818773;78;21885;-71
2021/01/09 10:09:15;;;;;;;27.55;15.60;;;;;;;-0.62;100.00;99207.23;1748863;81;21082;-70
2021/01/09 10:11:44;;;;;;;30.20;16.00;;;;;;;-0.69;100.00;99206.66;1810249;78;21095;-71
2021/01/09 10:14:14;;;;;;;29.05;17.27;;;;;;;-0.79;100.00;99198.77;1784383;80;20964;-72
2021/01/09 10:16:44;;;;;;;28.42;17.55;;;;;;;-0.85;100.00;99204.80;1786382;80;20897;-72
2021/01/09 10:19:15;;;;;;;24.98;13.93;;;;;;;-0.90;100.00;99199.59;1756761;80;21380;-72
2021/01/09 10:21:48;;;;;;;21.93;13.35;;;;;;;-0.82;100.00;99199.96;1786543;80;20909;-72
2021/01/09 10:24:17;;;;;;;27.17;15.35;;;;;;;-0.73;100.00;99197.52;1786665;80;21008;-71
2021/01/09 10:26:56;;;;;;;30.72;17.67;;;;;;;-0.61;100.00;99193.03;1785165;80;22318;-73
2021/01/09 10:29:38;;;;;;;31.73;19.82;;;;;;;-0.58;100.00;99198.76;1783557;80;21198;-73
2021/01/09 10:32:12;;;;;;;31.00;17.98;;;;;;;-0.67;100.00;99202.53;1784762;80;22301;-73
2021/01/09 10:34:41;;;;;;;28.50;15.03;;;;;;;-0.69;100.00;99193.48;1783500;80;21335;-72
2021/01/09 10:37:09;;;;;;;;;;;;;;;-0.56;100.00;99198.58;1788461;80;21032;-72
2021/01/09 10:47:28;;;;;;;24.25;13.98;;;;;;;-0.61;100.00;99199.15;1785978;80;22298;-73
2021/01/09 10:50:16;;;;;;;31.00;20.73;;;;;;;-0.74;100.00;99205.60;1835513;77;28552;-71
2021/01/09 10:52:44;;;;;;;27.77;18.05;;;;;;;-0.82;100.00;99205.23;1817249;78;20936;-72
2021/01/09 10:55:13;;;;;;;35.80;18.75;;;;;;;-0.81;100.00;99209.99;1819365;78;21194;-72
2021/01/09 10:57:51;;;;;;;31.17;17.48;;;;;;;-0.76;100.00;99202.33;1813567;78;21618;-72
2021/01/09 11:00:20;;;;;;;27.77;17.05;;;;;;;-0.68;100.00;99210.94;1816699;78;21561;-71
2021/01/09 11:02:49;;;;;;;29.02;18.20;;;;;;;-0.64;100.00;99194.23;1817628;78;21595;-72
2021/01/09 11:05:20;;;;;;;28.23;17.70;;;;;;;-0.62;100.00;99193.55;1819064;78;21478;-74
2021/01/09 11:07:52;;;;;;;31.75;19.45;;;;;;;-0.65;100.00;99198.69;1785638;78;21609;-74
2021/01/09 11:10:27;;;;;;;29.10;17.77;;;;;;;-0.64;100.00;99192.91;1818528;78;21093;-72
2021/01/09 11:16:25;;;;;;;29.63;17.60;;;;;;;-0.65;100.00;99190.79;1797791;78;21062;-71
2021/01/09 11:18:58;;;;;;;29.48;18.80;;;;;;;-0.59;100.00;99189.71;1815376;78;21118;-72
2021/01/09 11:21:27;;;;;;;29.65;18.10;;;;;;;-0.44;100.00;99190.47;1815887;78;21212;-73
2021/01/09 11:24:11;;;;;;;31.27;18.15;;;;;;;-0.39;100.00;99188.06;1814637;78;21055;-72
2021/01/09 11:27:12;;;;;;;29.32;17.55;;;;;;;-0.25;100.00;99187.64;1817747;78;20928;-71
2021/01/09 13:22:31;;;;;;;27.55;15.00;;;;;;;-0.28;100.00;99224.45;1684667;83;21273;-73
2021/01/09 13:25:04;;;;;;;43.52;22.75;;;;;;;-0.28;100.00;99213.89;1692717;84;21499;-74
2021/01/09 13:30:42;;;;;;;31.42;17.48;;;;;;;-0.47;100.00;99228.55;1825944;77;27757;-73
2021/01/09 13:33:21;;;;;;;33.83;19.27;;;;;;;-0.53;100.00;99227.19;1744799;80;21044;-74
2021/01/09 13:36:42;;;;;;;;;;;;;;;;;;;;;
2021/01/09 13:39:17;;;;;;;43.05;22.25;;;;;;;-0.74;100.00;99233.28;1849382;77;22833;-77
2021/01/09 13:46:52;;;;;;;39.67;22.17;;;;;;;-0.95;100.00;99224.37;1630545;86;21577;-74
2021/01/09 14:00:38;;;;;;;41.37;23.67;;;;;;;-0.95;100.00;99222.24;1798489;79;29385;-74
2021/01/09 14:06:18;;;;;;;36.17;18.65;;;;;;;-1.02;100.00;99223.48;1872590;75;28810;-72
2021/01/09 14:13:23;;;;;;;;;;;;;;;;;;;;;
2021/01/09 14:16:50;;;;;;;;;;;;;;;;;;;;;
2021/01/09 14:23:45;;;;;;;46.23;25.85;;;;;;;-1.22;100.00;99235.12;1768709;79;21424;-74
2021/01/09 14:27:12;;;;;;;48.25;26.48;;;;;;;-1.26;100.00;99231.72;1696490;82;21352;-73
2021/01/09 14:38:57;;;;;;;;;;;;;;;;;;;;;
2021/01/09 14:42:11;;;;;;;57.50;31.30;;;;;;;-1.32;100.00;99240.68;1873701;76;28242;-73
2021/01/09 14:44:39;;;;;;;55.17;30.65;;;;;;;-1.36;100.00;99239.91;1814469;79;21177;-72
2021/01/09 14:47:22;;;;;;;57.23;35.83;;;;;;;-1.39;100.00;99243.73;1810621;79;21376;-74
2021/01/09 14:49:51;;;;;;;53.40;31.20;;;;;;;-1.41;100.00;99243.09;1816092;79;21030;-73
2021/01/09 14:52:25;;;;;;;48.60;27.70;;;;;;;-1.41;100.00;99245.73;1808611;79;21122;-73
2021/01/09 14:54:57;;;;;;;45.48;27.00;;;;;;;-1.39;100.00;99252.14;1813449;79;21030;-73
2021/01/09 14:57:28;;;;;;;53.75;28.83;;;;;;;-1.43;100.00;99250.35;1811525;79;20896;-74
2021/01/09 15:00:23;;;;;;;58.05;35.03;;;;;;;-1.46;100.00;99251.23;1805988;79;21562;-75
2021/01/09 15:02:52;;;;;;;60.05;32.48;;;;;;;-1.48;100.00;99257.98;1814289;79;21062;-73
2021/01/09 15:05:21;;;;;;;52.60;27.30;;;;;;;-1.51;100.00;99256.53;1814760;79;20980;-74
2021/01/09 15:07:58;;;;;;;52.55;26.45;;;;;;;-1.52;100.00;99250.97;1815173;79;21189;-74
2021/01/09 15:10:31;;;;;;;48.27;23.60;;;;;;;-1.52;100.00;99260.66;1780855;79;21845;-74
2021/01/09 15:13:27;;;;;;;53.05;28.35;;;;;;;-1.50;100.00;99262.61;1807264;79;22306;-74
2021/01/09 15:16:38;;;;;;;57.80;31.87;;;;;;;-1.51;100.00;99263.12;1736150;82;21216;-72
2021/01/09 15:30:11;;;;;;;38.50;22.52;;;;;;;-1.47;100.00;99262.74;1767434;79;28449;-74
2021/01/09 15:33:05;;;;;;;49.18;25.68;;;;;;;-1.50;100.00;99266.56;1737047;82;21116;-73
2021/01/09 15:35:51;;;;;;;38.78;20.57;;;;;;;-1.49;100.00;99262.11;1707048;83;22232;-73
2021/01/09 15:38:23;;;;;;;44.73;23.47;;;;;;;-1.53;100.00;99266.42;1705705;83;21029;-71
2021/01/09 15:48:53;;;;;;;52.95;27.45;;;;;;;-1.49;100.00;99283.16;1696296;84;21206;-73
2021/01/09 16:04:29;;;;;;;48.45;25.10;;;;;;;-1.44;100.00;99289.53;1541913;91;21320;-73
2021/01/09 16:18:20;;;;;;;48.40;25.62;;;;;;;-1.36;100.00;99309.18;1793610;79;21629;-73
2021/01/09 16:56:50;;;;;;;63.42;33.15;;;;;;;-1.26;100.00;99331.28;1619287;86;21632;-74
2021/01/09 16:59:42;;;;;;;66.07;32.63;;;;;;;-1.23;100.00;99330.10;1847803;76;28293;-74
2021/01/09 17:02:12;;;;;;;64.62;33.73;;;;;;;-1.30;100.00;99331.32;1765749;79;21237;-75
2021/01/09 17:05:19;;;;;;;65.32;32.33;;;;;;;-1.24;100.00;99331.92;1726881;81;21425;-75
2021/01/09 17:08:18;;;;;;;47.85;25.50;;;;;;;-1.18;100.00;99324.59;1847583;75;28061;-73
2021/01/09 17:11:09;;;;;;;;;;;;;;;;;;;;;
2021/01/09 17:14:33;;;;;;;;;;;;;;;;;;;;;
2021/01/09 17:17:55;;;;;;;;;;;;;;;;;;;;;
2021/01/09 17:21:31;;;;;;;;;;;;;;;;;;;;;
2021/01/09 17:39:21;;;;;;;50.25;24.90;;;;;;;-1.22;100.00;99339.15;1576470;89;22078;-73
2021/01/09 17:42:17;;;;;;;51.35;28.95;;;;;;;-1.20;100.00;99342.89;1553937;92;21292;-74
2021/01/09 17:44:57;;;;;;;47.00;25.00;;;;;;;-1.24;100.00;99341.14;1585904;90;21252;-74
2021/01/09 17:47:27;;;;;;;49.98;23.32;;;;;;;-1.21;100.00;99340.77;1656711;86;21263;-73
2021/01/09 17:49:56;;;;;;;63.48;30.40;;;;;;;-1.21;100.00;99343.91;1658484;86;21238;-73
2021/01/09 17:52:24;;;;;;;;;;;;;;;-1.21;100.00;99351.30;1661108;86;21242;-72
2021/01/09 17:55:08;;;;;;;57.17;28.50;;;;;;;-1.19;100.00;99344.55;1658789;86;20430;-73
2021/01/09 17:57:38;;;;;;;52.35;27.50;;;;;;;-1.16;100.00;99356.03;1712676;82;21101;-72
2021/01/09 18:00:32;;;;;;;44.25;22.95;;;;;;;-1.10;100.00;99357.44;1849282;77;28753;-73
2021/01/09 18:06:46;;;;;;;54.63;24.65;;;;;;;-1.11;100.00;99351.84;1841956;77;28202;-72
2021/01/09 18:09:15;;;;;;;43.70;22.73;;;;;;;-1.16;100.00;99352.08;1736697;82;21056;-73
2021/01/09 18:11:45;;;;;;;49.08;26.33;;;;;;;-1.17;100.00;99355.22;1811787;79;21148;-73
2021/01/09 18:25:40;;;;;;;;;;;;;;;;;;;;;
2021/01/09 18:28:47;;;;;;;50.83;30.08;;;;;;;-1.18;100.00;99360.15;1827978;77;27672;-71
2021/01/09 18:33:10;;;;;;;60.12;31.40;;;;;;;-1.21;100.00;99363.16;1800925;77;27897;-71
2021/01/09 18:35:40;;;;;;;51.75;29.57;;;;;;;-1.23;100.00;99369.10;1817783;78;21475;-71
2021/01/09 18:38:46;;;;;;;58.08;29.90;;;;;;;-1.22;100.00;99368.12;1822073;78;21390;-72
2021/01/09 18:41:34;;;;;;;45.63;22.37;;;;;;;-1.18;100.00;99366.73;1842298;77;27431;-71
2021/01/09 18:44:47;;;;;;;63.10;39.30;;;;;;;-1.15;100.00;99368.19;1833610;77;27959;-71
2021/01/09 18:48:12;;;;;;;;;;;;;;;;;;;;;
2021/01/09 18:51:48;;;;;;;56.42;28.92;;;;;;;-1.19;100.00;99369.06;1785106;78;21538;-72
2021/01/09 18:58:18;;;;;;;52.55;27.02;;;;;;;-1.15;100.00;99370.81;1759579;80;28687;-73
2021/01/09 19:00:52;;;;;;;54.03;29.25;;;;;;;-1.20;100.00;99370.08;1761456;81;21191;-73
2021/01/09 19:03:33;;;;;;;58.90;30.12;;;;;;;-1.20;100.00;99370.55;1761653;81;22074;-73
2021/01/09 19:06:30;;;;;;;64.20;31.82;;;;;;;-1.20;100.00;99364.81;1747870;81;21223;-73
2021/01/09 19:20:14;;;;;;;;;;;;;;;;;;;;;
2021/01/09 19:23:01;;;;;;;53.38;28.27;;;;;;;-1.21;100.00;99365.79;1748848;81;21617;-72
2021/01/09 19:25:31;;;;;;;;;;;;;;;-1.21;100.00;99372.38;1768836;80;21631;-73
2021/01/09 19:28:04;;;;;;;63.25;32.10;;;;;;;-1.20;100.00;99363.49;1764900;81;20168;-71
2021/01/09 19:30:39;;;;;;;49.85;27.48;;;;;;;-1.21;100.00;99370.25;1763942;79;21073;-72
2021/01/09 19:33:08;;;;;;;56.92;30.82;;;;;;;-1.22;100.00;99365.99;1765818;81;21155;-73
2021/01/09 19:35:39;;;;;;;47.43;25.30;;;;;;;-1.22;100.00;99371.26;1765672;81;20943;-72
2021/01/09 19:38:11;;;;;;;64.80;34.00;;;;;;;-1.22;100.00;99377.34;1747760;81;22185;-74
2021/01/09 19:40:53;;;;;;;40.60;21.40;;;;;;;-1.22;100.00;99376.02;1745752;80;21063;-74